createdAt,value
2023-03-26T06:03:47.807Z,33.75
2023-03-26T06:04:46.448Z,33.75
2023-03-26T06:05:46.563Z,39.38
2023-03-26T06:06:46.284Z,33.75
2023-03-26T06:07:46.447Z,33.75
2023-03-26T06:08:46.158Z,39.38
2023-03-26T06:09:46.258Z,39.38
2023-03-26T06:10:46.060Z,50.63
2023-03-26T06:11:47.197Z,50.63
2023-03-26T06:12:46.129Z,50.63
2023-03-26T06:13:47.108Z,50.63
2023-03-26T06:14:45.876Z,56.25
2023-03-26T06:15:46.145Z,61.88
2023-03-26T06:16:45.803Z,61.88
2023-03-26T06:17:45.834Z,61.88
2023-03-26T06:18:45.696Z,73.13
2023-03-26T06:19:45.823Z,84.38
2023-03-26T06:20:45.725Z,95.63
2023-03-26T06:21:45.547Z,95.63
2023-03-26T06:22:45.838Z,90.00
2023-03-26T06:23:45.473Z,84.38
2023-03-26T06:24:45.551Z,95.63
2023-03-26T06:25:45.355Z,90.00
2023-03-26T06:26:46.484Z,84.38
2023-03-26T06:27:45.275Z,78.75
2023-03-26T06:28:45.381Z,78.75
2023-03-26T06:29:45.220Z,73.13
2023-03-26T06:30:45.181Z,73.13
2023-03-26T06:31:45.347Z,67.50
2023-03-26T06:32:45.073Z,67.50
2023-03-26T06:33:45.100Z,73.13
2023-03-26T06:34:44.941Z,61.88
2023-03-26T06:35:45.197Z,56.25
2023-03-26T06:36:44.979Z,56.25
2023-03-26T06:37:44.816Z,73.13
2023-03-26T06:38:44.765Z,101.25
2023-03-26T06:39:44.947Z,106.88
2023-03-26T06:40:44.674Z,106.88
2023-03-26T06:41:44.756Z,101.25
2023-03-26T06:43:10.041Z,101.25
2023-03-26T06:43:44.542Z,106.88
2023-03-26T06:44:45.599Z,112.50
2023-03-26T06:45:44.670Z,123.75
2023-03-26T06:46:45.527Z,123.75
2023-03-26T06:47:44.397Z,135.00
2023-03-26T06:48:44.301Z,146.25
2023-03-26T06:49:45.443Z,174.38
2023-03-26T06:50:44.413Z,191.25
2023-03-26T06:51:44.233Z,208.13
2023-03-26T06:52:44.327Z,219.38
2023-03-26T06:53:44.177Z,213.75
2023-03-26T06:54:44.012Z,202.50
2023-03-26T06:55:44.142Z,185.63
2023-03-26T06:56:43.920Z,174.38
2023-03-26T06:57:44.059Z,185.63
2023-03-26T06:58:43.835Z,213.75
2023-03-26T06:59:43.874Z,213.75
2023-03-26T07:00:43.767Z,196.88
2023-03-26T07:01:45.862Z,174.38
2023-03-26T07:02:43.707Z,146.25
2023-03-26T07:03:43.710Z,129.38
2023-03-26T07:04:43.555Z,129.38
2023-03-26T07:05:43.765Z,157.50
2023-03-26T07:06:43.460Z,185.63
2023-03-26T07:07:46.294Z,191.25
2023-03-26T07:08:43.392Z,185.63
2023-03-26T07:09:44.351Z,202.50
2023-03-26T07:10:43.292Z,208.13
2023-03-26T07:11:43.273Z,196.88
2023-03-26T07:12:43.205Z,202.50
2023-03-26T07:13:43.356Z,219.38
2023-03-26T07:14:43.089Z,230.63
2023-03-26T07:15:44.189Z,225.00
2023-03-26T07:16:43.038Z,213.75
2023-03-26T07:17:43.056Z,208.13
2023-03-26T07:18:43.112Z,196.88
2023-03-26T07:19:42.999Z,196.88
2023-03-26T07:20:42.811Z,208.13
2023-03-26T07:21:43.835Z,225.00
2023-03-26T07:22:42.715Z,225.00
2023-03-26T07:23:42.710Z,219.38
2023-03-26T07:24:42.629Z,225.00
2023-03-26T07:25:43.647Z,241.88
2023-03-26T07:26:42.684Z,264.38
2023-03-26T07:27:42.667Z,264.38
2023-03-26T07:28:42.720Z,281.25
2023-03-26T07:29:42.396Z,337.50
2023-03-26T07:30:44.401Z,360.00
2023-03-26T07:31:42.391Z,388.13
2023-03-26T07:32:42.477Z,444.38
2023-03-26T07:33:42.215Z,450.00
2023-03-26T07:34:42.331Z,393.75
2023-03-26T07:35:42.157Z,337.50
2023-03-26T07:36:42.297Z,320.63
2023-03-26T07:37:42.037Z,303.75
2023-03-26T07:38:42.104Z,292.50
2023-03-26T07:39:41.943Z,298.13
2023-03-26T07:40:41.928Z,343.13
2023-03-26T07:41:41.853Z,343.13
2023-03-26T07:42:42.044Z,303.75
2023-03-26T07:43:41.778Z,320.63
2023-03-26T07:44:42.025Z,320.63
2023-03-26T07:45:41.695Z,292.50
2023-03-26T07:46:41.647Z,247.50
2023-03-26T07:47:41.848Z,213.75
2023-03-26T07:48:41.531Z,253.13
2023-03-26T07:49:41.651Z,270.00
2023-03-26T07:50:41.452Z,258.75
2023-03-26T07:51:41.484Z,236.25
2023-03-26T07:52:41.338Z,225.00
2023-03-26T07:53:41.506Z,208.13
2023-03-26T07:54:41.251Z,191.25
2023-03-26T07:55:41.309Z,185.63
2023-03-26T07:56:41.518Z,146.25
2023-03-26T07:57:41.260Z,140.63
2023-03-26T07:58:41.068Z,151.88
2023-03-26T07:59:41.214Z,163.13
2023-03-26T08:00:40.971Z,174.38
2023-03-26T08:01:41.054Z,174.38
2023-03-26T08:02:40.934Z,202.50
2023-03-26T08:03:41.017Z,219.38
2023-03-26T08:04:40.832Z,219.38
2023-03-26T08:05:40.975Z,247.50
2023-03-26T08:06:40.797Z,247.50
2023-03-26T08:07:40.749Z,213.75
2023-03-26T08:08:40.615Z,225.00
2023-03-26T08:09:40.557Z,241.88
2023-03-26T08:10:40.518Z,264.38
2023-03-26T08:11:40.607Z,315.00
2023-03-26T08:12:40.453Z,388.13
2023-03-26T08:13:40.521Z,506.25
2023-03-26T08:14:40.330Z,545.63
2023-03-26T08:15:40.307Z,450.00
2023-03-26T08:16:40.233Z,376.88
2023-03-26T08:17:40.592Z,292.50
2023-03-26T08:18:40.154Z,528.75
2023-03-26T08:19:40.163Z,630.00
2023-03-26T08:20:40.065Z,618.75
2023-03-26T08:21:40.022Z,585.00
2023-03-26T08:22:39.989Z,495.00
2023-03-26T08:23:50.842Z,545.63
2023-03-26T08:24:39.892Z,798.75
2023-03-26T08:25:41.017Z,883.13
2023-03-26T08:26:39.795Z,871.88
2023-03-26T08:27:39.734Z,810.00
2023-03-26T08:28:39.984Z,736.88
2023-03-26T08:29:39.647Z,450.00
2023-03-26T08:30:41.696Z,421.88
2023-03-26T08:31:39.570Z,382.50
2023-03-26T08:32:39.635Z,320.63
2023-03-26T08:33:39.461Z,275.63
2023-03-26T08:34:39.644Z,174.38
2023-03-26T08:35:39.624Z,219.38
2023-03-26T08:36:39.556Z,225.00
2023-03-26T08:37:39.284Z,298.13
2023-03-26T08:38:39.334Z,219.38
2023-03-26T08:39:39.193Z,174.38
2023-03-26T08:40:39.352Z,191.25
2023-03-26T08:41:39.110Z,236.25
2023-03-26T08:42:40.215Z,270.00
2023-03-26T08:43:39.055Z,236.25
2023-03-26T08:44:38.997Z,264.38
2023-03-26T08:45:38.928Z,146.25
2023-03-26T08:46:40.229Z,174.38
2023-03-26T08:47:38.862Z,286.88
2023-03-26T08:48:39.044Z,393.75
2023-03-26T08:49:38.734Z,382.50
2023-03-26T08:50:38.706Z,270.00
2023-03-26T08:51:38.642Z,213.75
2023-03-26T08:52:38.662Z,247.50
2023-03-26T08:53:38.548Z,202.50
2023-03-26T08:54:38.666Z,112.50
2023-03-26T08:55:38.488Z,84.38
2023-03-26T08:56:38.476Z,101.25
2023-03-26T08:57:38.368Z,135.00
2023-03-26T08:58:38.499Z,264.38
2023-03-26T08:59:38.273Z,382.50
2023-03-26T09:00:38.319Z,433.13
2023-03-26T09:01:38.396Z,489.38
2023-03-26T09:02:38.252Z,607.50
2023-03-26T09:03:38.220Z,675.00
2023-03-26T09:04:38.128Z,658.13
2023-03-26T09:05:38.012Z,759.38
2023-03-26T09:06:38.160Z,686.25
2023-03-26T09:07:37.943Z,753.75
2023-03-26T09:08:37.882Z,663.75
2023-03-26T09:09:38.064Z,714.38
2023-03-26T09:10:37.926Z,900.00
2023-03-26T09:11:37.840Z,916.88
2023-03-26T09:12:37.698Z,894.38
2023-03-26T09:13:37.783Z,916.88
2023-03-26T09:14:37.763Z,990.00
2023-03-26T09:15:37.583Z,1040.63
2023-03-26T09:16:37.644Z,1040.63
2023-03-26T09:17:37.480Z,826.88
2023-03-26T09:18:37.618Z,765.00
2023-03-26T09:19:37.672Z,736.88
2023-03-26T09:20:37.335Z,680.63
2023-03-26T09:21:37.443Z,860.63
2023-03-26T09:22:37.255Z,883.13
2023-03-26T09:23:37.351Z,849.38
2023-03-26T09:24:37.159Z,832.50
2023-03-26T09:25:37.378Z,843.75
2023-03-26T09:26:37.149Z,894.38
2023-03-26T09:27:37.026Z,945.00
2023-03-26T09:28:37.141Z,978.75
2023-03-26T09:29:36.921Z,1029.38
2023-03-26T09:30:38.180Z,1063.13
2023-03-26T09:31:36.903Z,1063.13
2023-03-26T09:32:36.816Z,1063.13
2023-03-26T09:33:36.922Z,1068.75
2023-03-26T09:34:36.704Z,1040.63
2023-03-26T09:35:36.784Z,978.75
2023-03-26T09:36:36.783Z,911.25
2023-03-26T09:37:36.736Z,855.00
2023-03-26T09:38:36.748Z,810.00
2023-03-26T09:39:36.489Z,753.75
2023-03-26T09:40:36.506Z,753.75
2023-03-26T09:41:36.393Z,776.25
2023-03-26T09:42:36.742Z,810.00
2023-03-26T09:43:36.308Z,900.00
2023-03-26T09:44:36.258Z,984.38
2023-03-26T09:45:36.260Z,1074.38
2023-03-26T09:46:36.176Z,1136.25
2023-03-26T09:47:36.309Z,1215.00
2023-03-26T09:48:36.123Z,1276.88
2023-03-26T09:49:36.110Z,1338.75
2023-03-26T09:50:35.999Z,1406.25
2023-03-26T09:51:36.078Z,1462.50
2023-03-26T09:52:35.901Z,1513.13
2023-03-26T09:53:36.100Z,1490.63
2023-03-26T09:54:36.961Z,1625.63
2023-03-26T09:55:35.946Z,1575.00
2023-03-26T09:56:36.837Z,1428.75
2023-03-26T09:57:35.763Z,1400.63
2023-03-26T09:58:35.643Z,1355.63
2023-03-26T09:59:35.769Z,1350.00
2023-03-26T10:00:35.585Z,1400.63
2023-03-26T10:01:35.652Z,1440.00
2023-03-26T10:02:46.180Z,1479.38
2023-03-26T10:03:35.434Z,1558.13
2023-03-26T10:04:35.619Z,1518.75
2023-03-26T10:05:35.338Z,1496.25
2023-03-26T10:06:35.822Z,1395.00
2023-03-26T10:07:35.254Z,1288.13
2023-03-26T10:08:35.214Z,1254.38
2023-03-26T10:09:35.187Z,1260.00
2023-03-26T10:10:35.124Z,1209.38
2023-03-26T10:11:35.087Z,1164.38
2023-03-26T10:12:35.061Z,1096.88
2023-03-26T10:13:35.008Z,1096.88
2023-03-26T10:14:35.006Z,1130.63
2023-03-26T10:15:34.920Z,1147.50
2023-03-26T10:16:35.083Z,1164.38
2023-03-26T10:17:34.833Z,1215.00
2023-03-26T10:18:34.938Z,1248.75
2023-03-26T10:19:34.719Z,1276.88
2023-03-26T10:20:34.676Z,1310.63
2023-03-26T10:21:34.698Z,1321.88
2023-03-26T10:22:34.665Z,1378.13
2023-03-26T10:23:34.545Z,1338.75
2023-03-26T10:24:34.668Z,1305.00
2023-03-26T10:25:34.487Z,1333.13
2023-03-26T10:26:34.414Z,1333.13
2023-03-26T10:27:34.384Z,1265.63
2023-03-26T10:28:34.459Z,1271.25
2023-03-26T10:29:34.285Z,1321.88
2023-03-26T10:30:34.558Z,1310.63
2023-03-26T10:31:34.219Z,1175.63
2023-03-26T10:32:34.443Z,1406.25
2023-03-26T10:33:34.110Z,1485.00
2023-03-26T10:34:34.233Z,1434.38
2023-03-26T10:35:34.071Z,1496.25
2023-03-26T10:36:34.105Z,1535.63
2023-03-26T10:37:33.961Z,1591.88
2023-03-26T10:38:34.146Z,1591.88
2023-03-26T10:39:37.216Z,1648.13
2023-03-26T10:40:33.971Z,1501.88
2023-03-26T10:41:33.785Z,1299.38
2023-03-26T10:42:33.879Z,1327.50
2023-03-26T10:43:35.980Z,1462.50
2023-03-26T10:44:33.688Z,1530.00
2023-03-26T10:45:33.815Z,1828.13
2023-03-26T10:46:33.795Z,1608.75
2023-03-26T10:47:33.546Z,1693.13
2023-03-26T10:48:33.501Z,1591.88
2023-03-26T10:49:33.431Z,1569.38
2023-03-26T10:50:33.518Z,1546.88
2023-03-26T10:51:33.363Z,1440.00
2023-03-26T10:52:34.658Z,1327.50
2023-03-26T10:53:33.254Z,1254.38
2023-03-26T10:54:33.313Z,1265.63
2023-03-26T10:55:33.164Z,1344.38
2023-03-26T10:56:33.402Z,1355.63
2023-03-26T10:57:33.157Z,1580.63
2023-03-26T10:58:49.597Z,1912.50
2023-03-26T10:59:33.289Z,1552.50
2023-03-26T11:00:33.042Z,1715.63
2023-03-26T11:01:32.965Z,1614.38
2023-03-26T11:02:33.018Z,2323.13
2023-03-26T11:03:32.860Z,2745.00
2023-03-26T11:04:32.798Z,2536.88
2023-03-26T11:05:32.999Z,3026.25
2023-03-26T11:06:32.914Z,3375.00
2023-03-26T11:07:32.658Z,2649.38
2023-03-26T11:08:32.934Z,3183.75
2023-03-26T11:09:32.578Z,4944.38
2023-03-26T11:10:32.708Z,4893.75
2023-03-26T11:11:32.506Z,4421.25
2023-03-26T11:12:32.652Z,3296.25
2023-03-26T11:13:32.421Z,2795.63
2023-03-26T11:14:35.245Z,2143.13
2023-03-26T11:15:32.359Z,3262.50
2023-03-26T11:16:32.299Z,5028.75
2023-03-26T11:17:40.541Z,2542.50
2023-03-26T11:18:32.212Z,2733.75
2023-03-26T11:19:32.374Z,5647.50
2023-03-26T11:20:32.429Z,5670.00
2023-03-26T11:21:32.379Z,4123.13
2023-03-26T11:22:33.205Z,2745.00
2023-03-26T11:23:32.024Z,2160.00
2023-03-26T11:24:32.201Z,4477.50
2023-03-26T11:25:31.956Z,3318.75
2023-03-26T11:26:32.213Z,1569.38
2023-03-26T11:27:31.893Z,2806.88
2023-03-26T11:28:31.816Z,2503.13
2023-03-26T11:29:33.454Z,1625.63
2023-03-26T11:30:31.750Z,1580.63
2023-03-26T11:31:31.872Z,2086.88
2023-03-26T11:32:31.699Z,1816.88
2023-03-26T11:33:32.768Z,1884.38
2023-03-26T11:34:31.866Z,3982.50
2023-03-26T11:35:40.993Z,1957.50
2023-03-26T11:36:31.520Z,1293.75
2023-03-26T11:37:31.681Z,5546.25
2023-03-26T11:38:31.427Z,5023.13
2023-03-26T11:39:31.496Z,2182.50
2023-03-26T11:40:31.497Z,4573.13
2023-03-26T11:41:31.555Z,4050.00
2023-03-26T11:42:31.526Z,1417.50
2023-03-26T11:43:31.232Z,4252.50
2023-03-26T11:44:31.320Z,3166.88
2023-03-26T11:45:31.151Z,1440.00
2023-03-26T11:46:31.932Z,1361.25
2023-03-26T11:47:31.129Z,1130.63
2023-03-26T11:48:31.123Z,1080.00
2023-03-26T11:49:30.994Z,1788.75
2023-03-26T11:50:32.098Z,978.75
2023-03-26T11:51:30.922Z,1130.63
2023-03-26T11:52:33.330Z,1220.63
2023-03-26T11:53:30.839Z,1068.75
2023-03-26T11:54:30.886Z,956.25
2023-03-26T11:55:30.751Z,1158.75
2023-03-26T11:56:31.065Z,1147.50
2023-03-26T11:57:30.702Z,1113.75
2023-03-26T11:58:32.854Z,1006.88
2023-03-26T11:59:30.600Z,967.50
2023-03-26T12:00:30.832Z,871.88
2023-03-26T12:01:30.562Z,759.38
2023-03-26T12:02:31.950Z,691.88
2023-03-26T12:03:30.429Z,753.75
2023-03-26T12:04:31.960Z,877.50
2023-03-26T12:05:30.342Z,961.88
2023-03-26T12:06:30.456Z,815.63
2023-03-26T12:07:30.250Z,815.63
2023-03-26T12:08:32.541Z,894.38
2023-03-26T12:09:30.175Z,950.63
2023-03-26T12:10:30.300Z,945.00
2023-03-26T12:11:30.078Z,928.13
2023-03-26T12:12:30.200Z,961.88
2023-03-26T12:13:30.006Z,939.38
2023-03-26T12:14:30.208Z,843.75
2023-03-26T12:15:29.912Z,770.63
2023-03-26T12:16:31.002Z,787.50
2023-03-26T12:17:30.970Z,984.38
2023-03-26T12:18:29.782Z,1479.38
2023-03-26T12:19:30.857Z,4629.38
2023-03-26T12:20:30.918Z,5838.75
2023-03-26T12:21:29.765Z,5641.88
2023-03-26T12:22:29.608Z,5293.13
2023-03-26T12:23:29.565Z,5287.50
2023-03-26T12:24:29.665Z,5456.25
2023-03-26T12:25:29.497Z,5242.50
2023-03-26T12:26:29.681Z,5056.88
2023-03-26T12:27:29.398Z,5720.63
2023-03-26T12:28:29.690Z,5990.63
2023-03-26T12:29:29.498Z,6120.00
2023-03-26T12:30:29.324Z,4218.75
2023-03-26T12:31:29.557Z,4584.38
2023-03-26T12:32:39.473Z,3622.50
2023-03-26T12:33:29.376Z,1636.88
2023-03-26T12:34:29.135Z,1333.13
2023-03-26T12:35:29.129Z,1440.00
2023-03-26T12:36:29.051Z,3532.50
2023-03-26T12:37:29.261Z,4145.63
2023-03-26T12:38:28.967Z,5040.00
2023-03-26T12:40:10.817Z,3346.88
2023-03-26T12:40:29.114Z,3560.63
2023-03-26T12:44:43.006Z,4477.50
2023-03-26T12:44:53.177Z,1738.13
2023-03-26T12:44:55.973Z,2058.75
2023-03-26T12:44:56.402Z,3988.13
2023-03-26T12:45:28.731Z,1513.13
2023-03-26T12:47:56.130Z,1591.88
2023-03-26T12:47:59.790Z,1974.38
2023-03-26T12:48:28.613Z,2193.75
2023-03-26T12:49:29.846Z,3498.75
2023-03-26T12:50:34.117Z,4078.13
2023-03-26T12:51:28.633Z,5236.88
2023-03-26T12:52:28.700Z,4820.63
2023-03-26T12:53:29.671Z,5788.13
2023-03-26T12:54:28.353Z,3993.75
2023-03-26T12:55:28.542Z,4443.75
2023-03-26T12:56:28.511Z,3071.25
2023-03-26T12:57:29.443Z,3403.13
2023-03-26T12:58:28.222Z,5422.50
2023-03-26T12:59:28.385Z,4899.38
2023-03-26T13:00:28.118Z,4871.25
2023-03-26T13:01:49.775Z,3763.13
2023-03-26T13:02:28.187Z,1856.25
2023-03-26T13:03:29.178Z,3847.50
2023-03-26T13:04:27.977Z,1383.75
2023-03-26T13:05:29.048Z,1231.88
2023-03-26T13:06:28.033Z,4567.50
2023-03-26T13:07:27.894Z,1985.63
2023-03-26T13:08:29.317Z,1631.25
2023-03-26T13:09:27.806Z,1946.25
2023-03-26T13:10:28.060Z,2390.63
2023-03-26T13:11:27.711Z,1428.75
2023-03-26T13:12:27.683Z,1473.75
2023-03-26T13:13:30.146Z,1456.88
2023-03-26T13:14:27.598Z,2626.88
2023-03-26T13:15:27.703Z,1518.75
2023-03-26T13:16:27.601Z,1816.88
2023-03-26T13:17:27.794Z,1749.38
2023-03-26T13:18:27.438Z,1496.25
2023-03-26T13:19:27.829Z,1260.00
2023-03-26T13:20:27.383Z,1125.00
2023-03-26T13:21:27.643Z,3661.88
2023-03-26T13:22:27.298Z,3729.38
2023-03-26T13:23:28.476Z,877.50
2023-03-26T13:24:27.511Z,658.13
2023-03-26T13:25:28.182Z,483.75
2023-03-26T13:26:27.125Z,365.63
2023-03-26T13:27:27.278Z,315.00
2023-03-26T13:28:27.058Z,309.38
2023-03-26T13:29:27.180Z,303.75
2023-03-26T13:30:27.073Z,270.00
2023-03-26T13:31:26.942Z,247.50
2023-03-26T13:32:27.060Z,213.75
2023-03-26T13:33:26.831Z,180.00
2023-03-26T13:34:27.834Z,140.63
2023-03-26T13:35:26.805Z,129.38
2023-03-26T13:36:26.993Z,118.13
2023-03-26T13:37:26.680Z,101.25
2023-03-26T13:38:27.683Z,95.63
2023-03-26T13:39:26.799Z,84.38
2023-03-26T13:40:28.694Z,90.00
2023-03-26T13:41:26.537Z,90.00
2023-03-26T13:42:26.776Z,95.63
2023-03-26T13:43:26.406Z,95.63
2023-03-26T13:44:26.569Z,95.63
2023-03-26T13:45:26.351Z,95.63
2023-03-26T13:46:27.582Z,84.38
2023-03-26T13:47:26.777Z,78.75
2023-03-26T13:48:26.399Z,73.13
2023-03-26T13:49:28.466Z,67.50
2023-03-26T13:50:26.115Z,61.88
2023-03-26T13:51:26.211Z,50.63
2023-03-26T13:52:26.019Z,39.38
2023-03-26T13:53:26.228Z,28.13
2023-03-26T13:54:25.926Z,28.13
2023-03-26T13:55:25.944Z,28.13
2023-03-26T13:56:25.843Z,22.50
2023-03-26T13:57:25.960Z,22.50
2023-03-26T13:58:25.771Z,22.50
2023-03-26T13:59:25.710Z,28.13
2023-03-26T14:00:25.892Z,28.13
2023-03-26T14:01:25.661Z,39.38
2023-03-26T14:02:25.609Z,50.63
2023-03-26T14:03:26.137Z,50.63
2023-03-26T14:04:25.482Z,45.00
2023-03-26T14:05:25.721Z,45.00
2023-03-26T14:06:25.390Z,50.63
2023-03-26T14:07:26.553Z,45.00
2023-03-26T14:08:25.317Z,39.38
2023-03-26T14:09:25.438Z,50.63
2023-03-26T14:10:25.236Z,50.63
2023-03-26T14:11:25.240Z,50.63
2023-03-26T14:12:25.118Z,50.63
2023-03-26T14:13:26.268Z,67.50
2023-03-26T14:14:25.051Z,84.38
2023-03-26T14:15:25.044Z,106.88
2023-03-26T14:16:26.036Z,163.13
2023-03-26T14:17:24.962Z,213.75
2023-03-26T14:18:24.974Z,275.63
2023-03-26T14:19:24.788Z,320.63
2023-03-26T14:20:24.759Z,393.75
2023-03-26T14:21:26.032Z,478.13
2023-03-26T14:22:24.656Z,562.50
2023-03-26T14:23:24.825Z,624.38
2023-03-26T14:24:24.627Z,669.38
2023-03-26T14:25:24.616Z,691.88
2023-03-26T14:26:24.460Z,697.50
2023-03-26T14:27:24.543Z,697.50
2023-03-26T14:28:24.375Z,680.63
2023-03-26T14:29:24.553Z,663.75
2023-03-26T14:30:24.282Z,658.13
2023-03-26T14:31:25.543Z,630.00
2023-03-26T14:32:24.470Z,601.88
2023-03-26T14:33:27.496Z,573.75
2023-03-26T14:34:24.094Z,551.25
2023-03-26T14:35:24.226Z,517.50
2023-03-26T14:36:23.998Z,500.63
2023-03-26T14:37:27.182Z,489.38
2023-03-26T14:38:23.908Z,478.13
2023-03-26T14:39:23.879Z,478.13
2023-03-26T14:40:25.859Z,478.13
2023-03-26T14:41:23.771Z,472.50
2023-03-26T14:42:23.931Z,455.63
2023-03-26T14:43:24.129Z,450.00
2023-03-26T14:44:23.745Z,455.63
2023-03-26T14:45:23.761Z,472.50
2023-03-26T14:46:23.639Z,495.00
2023-03-26T14:47:23.786Z,517.50
2023-03-26T14:48:23.528Z,534.38
2023-03-26T14:49:23.579Z,545.63
2023-03-26T14:50:23.365Z,556.88
2023-03-26T14:51:23.318Z,573.75
2023-03-26T14:52:23.485Z,590.63
2023-03-26T14:53:23.360Z,601.88
2023-03-26T14:54:23.439Z,613.13
2023-03-26T14:55:23.145Z,624.38
2023-03-26T14:56:23.222Z,624.38
2023-03-26T14:57:23.116Z,613.13
2023-03-26T14:58:22.991Z,601.88
2023-03-26T14:59:23.135Z,596.25
2023-03-26T15:00:22.926Z,601.88
2023-03-26T15:01:23.130Z,607.50
2023-03-26T15:02:23.087Z,579.38
2023-03-26T15:03:22.763Z,528.75
2023-03-26T15:04:22.759Z,483.75
2023-03-26T15:05:22.678Z,399.38
2023-03-26T15:06:23.700Z,315.00
2023-03-26T15:07:22.598Z,258.75
2023-03-26T15:08:22.698Z,258.75
2023-03-26T15:09:22.502Z,275.63
2023-03-26T15:10:23.519Z,298.13
2023-03-26T15:11:22.406Z,298.13
2023-03-26T15:12:22.411Z,298.13
2023-03-26T15:13:22.308Z,298.13
2023-03-26T15:14:22.422Z,286.88
2023-03-26T15:15:22.432Z,286.88
2023-03-26T15:16:22.190Z,264.38
2023-03-26T15:17:22.267Z,230.63
2023-03-26T15:18:22.084Z,225.00
2023-03-26T15:19:22.256Z,326.25
2023-03-26T15:20:22.008Z,551.25
2023-03-26T15:21:22.122Z,697.50
2023-03-26T15:22:24.114Z,720.00
2023-03-26T15:23:21.858Z,703.13
2023-03-26T15:24:22.908Z,691.88
2023-03-26T15:25:21.768Z,680.63
2023-03-26T15:26:21.893Z,675.00
2023-03-26T15:27:21.796Z,675.00
2023-03-26T15:28:21.627Z,669.38
2023-03-26T15:29:22.747Z,680.63
2023-03-26T15:30:23.858Z,753.75
2023-03-26T15:31:21.531Z,793.13
2023-03-26T15:32:21.449Z,855.00
2023-03-26T15:33:21.388Z,855.00
2023-03-26T15:34:21.445Z,826.88
2023-03-26T15:35:21.318Z,798.75
2023-03-26T15:36:21.378Z,770.63
2023-03-26T15:37:21.209Z,725.63
2023-03-26T15:38:21.387Z,658.13
2023-03-26T15:39:22.197Z,534.38
2023-03-26T15:40:21.105Z,371.25
2023-03-26T15:41:21.182Z,219.38
2023-03-26T15:42:20.983Z,123.75
2023-03-26T15:43:21.029Z,73.13
2023-03-26T15:44:23.061Z,45.00
2023-03-26T15:45:20.844Z,28.13
2023-03-26T15:46:23.292Z,22.50
2023-03-26T15:47:20.752Z,22.50
2023-03-26T15:48:20.741Z,16.88
2023-03-26T15:49:20.665Z,16.88
2023-03-26T15:50:22.810Z,22.50
2023-03-26T15:51:20.652Z,22.50
2023-03-26T15:52:20.562Z,22.50
2023-03-26T15:53:20.583Z,22.50
2023-03-26T15:54:20.430Z,22.50
2023-03-26T15:55:20.475Z,22.50
2023-03-26T15:56:20.343Z,16.88
2023-03-26T15:57:20.322Z,16.88
2023-03-26T15:58:20.337Z,16.88
2023-03-26T15:59:20.295Z,16.88
2023-03-26T16:00:20.152Z,16.88
2023-03-26T16:01:20.236Z,28.13
2023-03-26T16:02:20.132Z,28.13
2023-03-26T16:03:20.117Z,33.75
2023-03-26T16:04:19.998Z,39.38
2023-03-26T16:05:20.068Z,50.63
2023-03-26T16:06:19.867Z,56.25
2023-03-26T16:07:22.005Z,56.25
2023-03-26T16:08:19.772Z,61.88
2023-03-26T16:09:19.965Z,84.38
2023-03-26T16:10:19.801Z,90.00
2023-03-26T16:11:19.869Z,106.88
2023-03-26T16:12:19.581Z,123.75
2023-03-26T16:13:19.727Z,146.25
2023-03-26T16:14:20.902Z,168.75
2023-03-26T16:15:19.546Z,202.50
2023-03-26T16:16:19.554Z,241.88
2023-03-26T16:17:19.520Z,298.13
2023-03-26T16:18:19.314Z,348.75
2023-03-26T16:19:19.722Z,393.75
2023-03-26T16:20:19.212Z,416.25
2023-03-26T16:21:32.137Z,416.25
2023-03-26T16:22:19.118Z,399.38
2023-03-26T16:23:19.239Z,365.63
2023-03-26T16:24:19.018Z,326.25
2023-03-26T16:25:27.116Z,281.25
2023-03-26T16:26:18.928Z,241.88
2023-03-26T16:27:19.266Z,225.00
2023-03-26T16:28:18.833Z,213.75
2023-03-26T16:29:18.993Z,213.75
2023-03-26T16:30:20.756Z,225.00
2023-03-26T16:31:35.014Z,196.88
2023-03-26T16:32:18.735Z,185.63
2023-03-26T16:33:18.808Z,180.00
2023-03-26T16:34:18.615Z,174.38
2023-03-26T16:35:18.671Z,286.88
2023-03-26T16:36:18.630Z,675.00
2023-03-26T16:37:18.414Z,714.38
2023-03-26T16:38:19.461Z,708.75
2023-03-26T16:39:18.320Z,697.50
2023-03-26T16:40:18.494Z,697.50
2023-03-26T16:41:18.470Z,686.25
2023-03-26T16:42:18.215Z,680.63
2023-03-26T16:43:18.272Z,641.25
2023-03-26T16:44:18.093Z,444.38
2023-03-26T16:45:19.206Z,551.25
2023-03-26T16:46:18.407Z,466.88
2023-03-26T16:47:17.956Z,343.13
2023-03-26T16:48:17.997Z,399.38
2023-03-26T16:49:17.852Z,472.50
2023-03-26T16:50:18.005Z,601.88
2023-03-26T16:51:17.759Z,410.63
2023-03-26T16:52:17.742Z,421.88
2023-03-26T16:53:17.935Z,421.88
2023-03-26T16:54:17.620Z,421.88
2023-03-26T16:55:18.759Z,416.25
2023-03-26T16:56:17.529Z,405.00
2023-03-26T16:57:17.592Z,393.75
2023-03-26T16:58:17.436Z,382.50
2023-03-26T16:59:17.636Z,360.00
2023-03-26T17:00:17.358Z,348.75
2023-03-26T17:01:18.106Z,337.50
2023-03-26T17:02:17.380Z,309.38
2023-03-26T17:03:17.313Z,270.00
2023-03-26T17:04:17.389Z,247.50
2023-03-26T17:05:17.165Z,236.25
2023-03-26T17:06:17.411Z,225.00
2023-03-26T17:07:17.017Z,225.00
2023-03-26T17:08:17.220Z,219.38
2023-03-26T17:09:16.947Z,219.38
2023-03-26T17:10:19.074Z,236.25
2023-03-26T17:11:16.842Z,236.25
2023-03-26T17:12:17.040Z,202.50
2023-03-26T17:13:16.758Z,185.63
2023-03-26T17:14:16.953Z,174.38
2023-03-26T17:15:16.699Z,157.50
2023-03-26T17:16:16.809Z,140.63
2023-03-26T17:17:16.557Z,129.38
2023-03-26T17:18:17.696Z,118.13
2023-03-26T17:19:16.465Z,112.50
2023-03-26T17:20:17.607Z,101.25
2023-03-26T17:21:16.648Z,84.38
2023-03-26T17:22:16.399Z,78.75
2023-03-26T17:23:16.310Z,73.13
2023-03-26T17:24:16.336Z,73.13
2023-03-26T17:25:16.426Z,67.50
2023-03-26T17:26:16.178Z,67.50
2023-03-26T17:27:37.336Z,61.88
2023-03-26T17:28:16.051Z,61.88
2023-03-26T17:29:18.189Z,56.25
2023-03-26T17:30:15.954Z,56.25
2023-03-26T17:31:16.189Z,50.63
2023-03-26T17:32:15.882Z,50.63
2023-03-26T17:33:17.913Z,45.00
2023-03-26T17:34:15.765Z,45.00
2023-03-26T17:35:16.907Z,39.38
2023-03-26T17:36:15.678Z,39.38
2023-03-26T17:37:16.793Z,39.38
2023-03-26T17:38:15.763Z,33.75
2023-03-26T17:39:17.770Z,33.75
2023-03-26T17:40:15.496Z,28.13
2023-03-26T17:41:16.481Z,28.13
2023-03-26T17:42:16.547Z,28.13
2023-03-26T17:43:15.356Z,22.50
2023-03-26T17:44:15.538Z,22.50
2023-03-26T17:45:15.248Z,16.88
2023-03-26T17:46:15.488Z,16.88
2023-03-26T17:47:15.160Z,16.88
2023-03-26T17:48:15.119Z,16.88
2023-03-26T17:49:15.288Z,11.25
2023-03-26T17:50:15.326Z,11.25
2023-03-26T17:51:16.098Z,11.25
2023-03-26T17:52:14.929Z,5.63
2023-03-26T17:53:15.093Z,5.63
2023-03-26T17:54:14.852Z,5.63
2023-03-26T17:55:14.786Z,5.63
2023-03-26T17:56:14.920Z,5.63
2023-03-26T17:57:15.010Z,5.63
2023-03-26T17:58:14.718Z,0.00
2023-03-26T17:59:14.603Z,0.00
2023-03-26T18:00:14.649Z,0.00
2023-03-26T18:01:14.558Z,0.00
2023-03-26T18:02:15.695Z,0.00
2023-03-26T18:03:15.802Z,0.00
2023-03-26T18:04:15.589Z,0.00
2023-03-26T18:05:14.321Z,0.00
2023-03-26T18:06:14.371Z,0.00
2023-03-26T18:07:14.480Z,0.00
2023-03-26T18:08:14.179Z,0.00
2023-03-26T18:09:15.537Z,0.00
2023-03-26T18:10:14.109Z,0.00
2023-03-26T18:11:15.127Z,0.00
2023-03-26T18:12:14.005Z,0.00
2023-03-26T18:13:13.952Z,0.00
2023-03-26T18:14:14.044Z,0.00
2023-03-26T18:15:13.918Z,0.00
2023-03-26T18:16:14.097Z,0.00
2023-03-26T18:17:13.806Z,0.00
2023-03-26T18:18:14.180Z,0.00
2023-03-26T18:19:13.685Z,0.00
2023-03-26T18:20:13.769Z,0.00
2023-03-26T18:21:13.568Z,0.00
2023-03-26T18:22:13.574Z,0.00
2023-03-26T18:23:13.485Z,0.00
2023-03-26T18:24:13.705Z,0.00
2023-03-26T18:25:13.393Z,0.00
2023-03-26T18:26:13.354Z,0.00
2023-03-26T18:27:13.588Z,0.00
2023-03-26T18:28:13.238Z,0.00
2023-03-26T18:29:13.322Z,0.00
2023-03-26T18:30:13.159Z,0.00
2023-03-26T18:31:13.327Z,0.00